createdAt,value
2022-07-29T00:01:54.073Z,5.15
2022-07-29T00:04:21.947Z,4.88
2022-07-29T00:06:49.706Z,5.05
2022-07-29T00:09:19.608Z,5.20
2022-07-29T00:11:48.560Z,5.13
2022-07-29T00:14:16.342Z,5.00
2022-07-29T00:16:44.217Z,5.00
2022-07-29T00:19:11.618Z,5.15
2022-07-29T00:21:40.051Z,4.68
2022-07-29T00:24:09.987Z,5.47
2022-07-29T00:26:37.464Z,5.20
2022-07-29T00:31:56.323Z,4.82
2022-07-29T00:34:42.558Z,5.20
2022-07-29T00:37:17.018Z,5.53
2022-07-29T00:39:44.528Z,5.40
2022-07-29T00:42:12.241Z,4.90
2022-07-29T00:44:40.846Z,4.57
2022-07-29T00:47:10.178Z,4.80
2022-07-29T00:49:39.962Z,4.50
2022-07-29T00:52:08.861Z,4.70
2022-07-29T00:54:39.838Z,4.57
2022-07-29T00:57:13.006Z,4.45
2022-07-29T00:59:40.653Z,4.35
2022-07-29T01:02:08.183Z,5.03
2022-07-29T01:04:36.393Z,4.90
2022-07-29T01:07:05.567Z,5.30
2022-07-29T01:09:46.069Z,4.70
2022-07-29T01:12:24.581Z,4.85
2022-07-29T01:14:53.352Z,4.70
2022-07-29T01:17:53.226Z,4.65
2022-07-29T01:20:54.324Z,4.18
2022-07-29T01:23:39.868Z,4.80
2022-07-29T01:28:58.574Z,4.07
2022-07-29T01:31:59.219Z,4.25
2022-07-29T01:34:58.098Z,4.63
2022-07-29T01:37:41.044Z,4.25
2022-07-29T01:40:20.142Z,5.28
2022-07-29T01:42:54.035Z,5.00
2022-07-29T01:45:33.582Z,4.90
2022-07-29T01:48:14.859Z,3.95
2022-07-29T01:50:49.894Z,3.83
2022-07-29T01:55:54.389Z,5.03
2022-07-29T01:58:32.654Z,5.45
2022-07-29T02:01:03.161Z,5.47
2022-07-29T02:03:33.834Z,6.15
2022-07-29T02:06:04.511Z,5.93
2022-07-29T02:08:34.047Z,5.72
2022-07-29T02:11:03.885Z,6.07
2022-07-29T02:13:33.294Z,4.97
2022-07-29T02:16:02.982Z,4.20
2022-07-29T02:18:32.104Z,5.03
2022-07-29T02:21:02.412Z,4.85
2022-07-29T02:23:31.852Z,4.30
2022-07-29T02:26:20.640Z,4.13
2022-07-29T02:28:49.623Z,3.88
2022-07-29T02:31:20.082Z,3.60
2022-07-29T02:33:49.608Z,3.78
2022-07-29T02:36:17.892Z,3.60
2022-07-29T02:38:52.330Z,4.05
2022-07-29T02:41:30.871Z,3.60
2022-07-29T02:44:05.518Z,3.72
2022-07-29T02:46:35.973Z,3.45
2022-07-29T02:49:23.346Z,3.85
2022-07-29T02:52:02.479Z,4.28
2022-07-29T02:54:43.737Z,3.47
2022-07-29T02:57:20.739Z,3.55
2022-07-29T02:59:51.909Z,3.80
2022-07-29T03:02:20.205Z,3.85
2022-07-29T03:04:50.466Z,3.70
2022-07-29T03:07:20.794Z,4.75
2022-07-29T03:09:48.684Z,5.78
2022-07-29T03:12:17.454Z,5.55
2022-07-29T03:14:45.145Z,5.78
2022-07-29T03:17:13.210Z,6.13
2022-07-29T03:19:41.282Z,5.03
2022-07-29T03:22:08.858Z,4.95
2022-07-29T03:24:38.014Z,3.83
2022-07-29T03:27:06.539Z,4.10
2022-07-29T03:29:34.892Z,3.70
2022-07-29T03:32:07.212Z,3.92
2022-07-29T03:34:37.073Z,4.10
2022-07-29T03:37:06.716Z,3.58
2022-07-29T03:39:40.423Z,3.50
2022-07-29T03:42:10.029Z,3.33
2022-07-29T03:44:40.187Z,3.45
2022-07-29T03:47:09.523Z,3.80
2022-07-29T03:49:39.225Z,3.50
2022-07-29T03:52:07.510Z,3.75
2022-07-29T03:54:35.297Z,3.75
2022-07-29T03:57:04.964Z,3.97
2022-07-29T03:59:35.142Z,3.70
2022-07-29T04:02:04.770Z,3.72
2022-07-29T04:04:39.017Z,4.68
2022-07-29T04:07:06.521Z,3.67
2022-07-29T04:09:34.348Z,3.63
2022-07-29T04:12:04.093Z,3.50
2022-07-29T04:14:33.948Z,3.47
2022-07-29T04:17:03.134Z,3.67
2022-07-29T04:19:31.211Z,4.03
2022-07-29T04:21:59.901Z,3.88
2022-07-29T04:24:27.368Z,3.53
2022-07-29T04:26:55.679Z,3.92
2022-07-29T04:29:23.033Z,4.10
2022-07-29T04:31:50.384Z,3.28
2022-07-29T04:34:18.308Z,3.38
2022-07-29T04:36:46.434Z,2.97
2022-07-29T04:39:17.063Z,4.00
2022-07-29T04:41:47.361Z,3.75
2022-07-29T04:44:15.220Z,3.75
2022-07-29T04:46:45.761Z,3.75
2022-07-29T04:49:13.220Z,3.70
2022-07-29T04:51:40.587Z,3.63
2022-07-29T04:54:07.885Z,3.70
2022-07-29T04:56:35.269Z,3.55
2022-07-29T04:59:02.596Z,3.33
2022-07-29T05:01:30.092Z,3.60
2022-07-29T05:04:00.507Z,3.20
2022-07-29T05:06:28.229Z,3.15
2022-07-29T05:08:55.452Z,3.97
2022-07-29T05:11:26.124Z,3.70
2022-07-29T05:13:57.391Z,4.03
2022-07-29T05:16:24.801Z,3.75
2022-07-29T05:18:52.361Z,3.70
2022-07-29T05:21:19.708Z,3.60
2022-07-29T05:23:47.206Z,3.50
2022-07-29T05:26:14.532Z,3.38
2022-07-29T05:28:41.886Z,3.75
2022-07-29T05:31:09.305Z,3.38
2022-07-29T05:33:37.248Z,3.80
2022-07-29T05:36:09.135Z,3.70
2022-07-29T05:38:37.422Z,3.92
2022-07-29T05:41:06.581Z,3.80
2022-07-29T05:43:34.431Z,4.57
2022-07-29T05:46:02.254Z,6.18
2022-07-29T05:48:31.909Z,4.30
2022-07-29T05:50:59.311Z,4.13
2022-07-29T05:53:29.226Z,3.80
2022-07-29T05:55:58.071Z,4.13
2022-07-29T05:58:25.504Z,3.78
2022-07-29T06:00:54.092Z,4.18
2022-07-29T06:03:21.445Z,3.97
2022-07-29T06:05:48.806Z,4.43
2022-07-29T06:08:16.126Z,4.20
2022-07-29T06:10:43.510Z,4.35
2022-07-29T06:13:11.035Z,4.28
2022-07-29T06:15:47.812Z,4.53
2022-07-29T06:18:15.231Z,4.00
2022-07-29T06:20:43.286Z,4.32
2022-07-29T06:23:11.256Z,5.10
2022-07-29T06:25:38.991Z,5.00
2022-07-29T06:28:06.489Z,5.93
2022-07-29T06:30:43.549Z,6.18
2022-07-29T06:33:35.412Z,5.70
2022-07-29T06:36:06.357Z,5.47
2022-07-29T06:38:42.108Z,6.18
2022-07-29T06:41:15.673Z,5.72
2022-07-29T06:43:52.509Z,5.78
2022-07-29T06:46:23.574Z,5.78
2022-07-29T06:48:53.062Z,4.85
2022-07-29T06:51:23.287Z,5.45
2022-07-29T06:54:00.094Z,5.43
2022-07-29T06:56:38.979Z,5.35
2022-07-29T06:59:11.536Z,4.93
2022-07-29T07:01:40.639Z,4.53
2022-07-29T07:04:09.988Z,4.63
2022-07-29T07:06:37.809Z,4.28
2022-07-29T07:09:05.521Z,4.18
2022-07-29T07:11:32.964Z,4.00
2022-07-29T07:14:14.485Z,4.53
2022-07-29T07:16:44.824Z,4.40
2022-07-29T07:19:12.161Z,4.10
2022-07-29T07:21:41.732Z,4.10
2022-07-29T07:24:09.154Z,4.35
2022-07-29T07:26:36.824Z,5.15
2022-07-29T07:29:04.206Z,4.53
2022-07-29T07:31:31.723Z,4.70
2022-07-29T07:33:59.336Z,4.75
2022-07-29T07:36:26.756Z,4.97
2022-07-29T07:38:54.031Z,4.68
2022-07-29T07:41:50.407Z,4.53
2022-07-29T07:44:21.012Z,4.43
2022-07-29T07:46:48.593Z,4.28
2022-07-29T07:49:18.169Z,4.18
2022-07-29T07:51:50.828Z,4.10
2022-07-29T07:54:20.796Z,4.60
2022-07-29T07:56:53.074Z,4.80
2022-07-29T07:59:20.838Z,4.10
2022-07-29T08:01:55.630Z,4.13
2022-07-29T08:04:28.260Z,4.40
2022-07-29T08:06:58.011Z,3.80
2022-07-29T08:09:29.729Z,3.58
2022-07-29T08:11:58.889Z,3.90
2022-07-29T08:14:57.993Z,4.68
2022-07-29T08:17:25.377Z,4.30
2022-07-29T08:19:52.731Z,4.57
2022-07-29T08:22:20.085Z,4.00
2022-07-29T08:25:05.303Z,4.10
2022-07-29T08:27:43.391Z,3.58
2022-07-29T08:30:11.862Z,4.35
2022-07-29T08:32:55.710Z,4.30
2022-07-29T08:35:24.633Z,3.20
2022-07-29T08:37:53.173Z,3.53
2022-07-29T08:40:31.983Z,3.80
2022-07-29T08:43:05.437Z,3.95
2022-07-29T08:45:51.308Z,3.60
2022-07-29T08:50:56.653Z,3.78
2022-07-29T08:53:28.043Z,3.47
2022-07-29T08:55:56.481Z,3.35
2022-07-29T08:58:25.551Z,3.20
2022-07-29T09:00:56.031Z,3.13
2022-07-29T09:03:32.728Z,3.00
2022-07-29T09:06:01.052Z,2.97
2022-07-29T09:08:29.466Z,3.40
2022-07-29T09:11:01.245Z,3.42
2022-07-29T09:13:31.509Z,3.80
2022-07-29T09:15:59.066Z,3.55
2022-07-29T09:18:36.478Z,3.83
2022-07-29T09:21:23.975Z,3.70
2022-07-29T09:24:06.703Z,3.40
2022-07-29T09:26:37.221Z,3.42
2022-07-29T09:29:14.015Z,3.65
2022-07-29T09:31:45.916Z,3.25
2022-07-29T09:34:16.082Z,3.47
2022-07-29T09:36:46.117Z,2.97
2022-07-29T09:39:15.590Z,2.65
2022-07-29T09:41:47.702Z,2.80
2022-07-29T09:44:16.006Z,3.00
2022-07-29T09:47:08.448Z,3.30
2022-07-29T09:50:00.656Z,3.20
2022-07-29T09:52:29.883Z,3.05
2022-07-29T09:55:17.947Z,3.60
2022-07-29T09:57:49.490Z,3.17
2022-07-29T10:00:19.344Z,3.10
2022-07-29T10:02:47.857Z,3.53
2022-07-29T10:05:26.981Z,3.13
2022-07-29T10:08:04.888Z,3.67
2022-07-29T10:10:38.163Z,3.60
2022-07-29T10:13:12.233Z,3.42
2022-07-29T10:15:46.987Z,3.35
2022-07-29T10:18:18.680Z,3.97
2022-07-29T10:20:46.647Z,3.30
2022-07-29T10:23:17.091Z,2.83
2022-07-29T10:25:46.817Z,2.83
2022-07-29T10:28:16.523Z,3.00
2022-07-29T10:30:46.442Z,3.25
2022-07-29T10:33:35.244Z,2.63
2022-07-29T10:36:14.785Z,2.53
2022-07-29T10:39:06.559Z,2.75
2022-07-29T10:42:06.770Z,2.60
2022-07-29T10:44:40.848Z,2.63
2022-07-29T10:47:08.327Z,2.65
2022-07-29T10:49:35.951Z,2.38
2022-07-29T10:52:08.142Z,2.85
2022-07-29T10:54:42.339Z,2.55
2022-07-29T10:57:25.701Z,2.95
2022-07-29T11:03:04.518Z,2.75
2022-07-29T11:05:56.350Z,2.50
2022-07-29T11:08:28.168Z,3.08
2022-07-29T11:11:22.856Z,3.53
2022-07-29T11:13:57.400Z,2.70
2022-07-29T11:16:27.111Z,2.80
2022-07-29T11:19:13.335Z,3.03
2022-07-29T11:21:54.045Z,3.10
2022-07-29T11:24:29.452Z,2.60
2022-07-29T11:27:35.206Z,2.97
2022-07-29T11:30:04.911Z,3.17
2022-07-29T11:32:41.209Z,2.88
2022-07-29T11:35:38.280Z,2.60
2022-07-29T11:41:27.929Z,2.58
2022-07-29T11:44:02.907Z,2.50
2022-07-29T11:46:50.668Z,2.28
2022-07-29T11:52:15.024Z,2.25
2022-07-29T11:54:58.178Z,2.22
2022-07-29T11:57:36.345Z,2.10
2022-07-29T12:03:01.907Z,2.13
2022-07-29T12:05:48.261Z,2.53
2022-07-29T12:08:21.871Z,2.15
2022-07-29T12:10:51.877Z,2.70
2022-07-29T12:13:22.191Z,2.13
2022-07-29T12:16:00.090Z,2.13
2022-07-29T12:18:28.227Z,2.63
2022-07-29T12:21:03.583Z,2.50
2022-07-29T12:23:35.034Z,2.60
2022-07-29T12:26:10.606Z,2.47
2022-07-29T12:28:40.005Z,2.28
2022-07-29T12:31:14.287Z,2.15
2022-07-29T12:33:42.455Z,2.40
2022-07-29T12:36:14.186Z,2.20
2022-07-29T12:38:45.848Z,2.40
2022-07-29T12:41:14.034Z,2.15
2022-07-29T12:43:54.253Z,2.20
2022-07-29T12:46:21.903Z,3.40
2022-07-29T12:48:57.786Z,2.92
2022-07-29T12:51:41.886Z,2.85
2022-07-29T12:54:16.508Z,2.97
2022-07-29T12:56:45.904Z,2.55
2022-07-29T12:59:18.836Z,2.95
2022-07-29T13:01:54.527Z,2.95
2022-07-29T13:04:37.812Z,3.13
2022-07-29T13:07:10.505Z,2.60
2022-07-29T13:09:39.308Z,2.45
2022-07-29T13:12:11.365Z,2.88
2022-07-29T13:14:41.822Z,2.60
2022-07-29T13:17:20.497Z,3.83
2022-07-29T13:19:48.894Z,2.90
2022-07-29T13:22:24.412Z,3.25
2022-07-29T13:24:57.068Z,3.15
2022-07-29T13:27:29.272Z,3.08
2022-07-29T13:29:58.925Z,3.13
2022-07-29T13:32:29.066Z,3.10
2022-07-29T13:34:58.038Z,3.10
2022-07-29T13:37:25.849Z,3.72
2022-07-29T13:39:54.244Z,3.67
2022-07-29T13:42:23.206Z,3.55
2022-07-29T13:44:52.828Z,3.15
2022-07-29T13:47:21.292Z,3.30
2022-07-29T13:49:49.413Z,3.08
2022-07-29T13:52:17.232Z,3.78
2022-07-29T13:54:45.212Z,3.30
2022-07-29T13:57:13.620Z,3.67
2022-07-29T13:59:43.159Z,3.33
2022-07-29T14:02:12.253Z,3.25
2022-07-29T14:04:44.339Z,4.10
2022-07-29T14:07:11.777Z,3.50
2022-07-29T14:09:43.989Z,3.38
2022-07-29T14:12:11.435Z,3.30
2022-07-29T14:14:38.867Z,3.72
2022-07-29T14:17:07.804Z,3.35
2022-07-29T14:19:39.648Z,4.18
2022-07-29T14:22:08.662Z,3.70
2022-07-29T14:24:37.717Z,5.00
2022-07-29T14:27:06.664Z,3.42
2022-07-29T14:29:35.259Z,3.13
2022-07-29T14:32:08.020Z,3.28
2022-07-29T14:34:36.801Z,3.47
2022-07-29T14:37:06.921Z,3.30
2022-07-29T14:39:42.333Z,3.20
2022-07-29T14:42:12.865Z,3.28
2022-07-29T14:44:42.776Z,3.53
2022-07-29T14:47:10.735Z,3.10
2022-07-29T14:49:38.149Z,3.40
2022-07-29T14:52:05.935Z,3.30
2022-07-29T14:54:33.518Z,3.53
2022-07-29T14:57:01.045Z,3.60
2022-07-29T14:59:28.497Z,3.45
2022-07-29T15:01:56.296Z,3.20
2022-07-29T15:04:24.153Z,3.03
2022-07-29T15:06:51.702Z,3.92
2022-07-29T15:09:19.335Z,3.42
2022-07-29T15:11:46.762Z,3.55
2022-07-29T15:14:14.095Z,3.28
2022-07-29T15:16:43.516Z,3.05
2022-07-29T15:19:11.860Z,3.20
2022-07-29T15:21:41.618Z,3.40
2022-07-29T15:24:19.919Z,3.65
2022-07-29T15:26:50.862Z,3.90
2022-07-29T15:29:18.301Z,4.00
2022-07-29T15:31:45.740Z,3.72
2022-07-29T15:34:13.166Z,3.67
2022-07-29T15:36:56.319Z,4.47
2022-07-29T15:39:29.088Z,4.13
2022-07-29T15:41:56.795Z,5.00
2022-07-29T15:44:24.485Z,4.80
2022-07-29T15:47:06.365Z,4.30
2022-07-29T15:49:47.339Z,4.63
2022-07-29T15:52:24.744Z,4.28
2022-07-29T15:54:55.533Z,5.05
2022-07-29T15:57:23.981Z,4.88
2022-07-29T15:59:52.151Z,4.40
2022-07-29T16:02:19.868Z,3.97
2022-07-29T16:04:47.524Z,4.32
2022-07-29T16:07:15.631Z,4.07
2022-07-29T16:09:44.855Z,4.22
2022-07-29T16:12:16.928Z,4.10
2022-07-29T16:14:44.989Z,4.00
2022-07-29T16:17:14.572Z,4.10
2022-07-29T16:19:43.846Z,4.05
2022-07-29T16:22:12.809Z,4.80
2022-07-29T16:24:40.439Z,4.88
2022-07-29T16:27:07.902Z,6.10
2022-07-29T16:29:37.308Z,4.13
2022-07-29T16:32:06.432Z,3.70
2022-07-29T16:34:34.067Z,3.72
2022-07-29T16:37:02.020Z,5.13
2022-07-29T16:39:32.520Z,4.20
2022-07-29T16:42:06.162Z,5.05
2022-07-29T16:44:36.068Z,4.30
2022-07-29T16:47:08.560Z,4.30
2022-07-29T16:49:36.841Z,4.53
2022-07-29T16:52:04.477Z,4.65
2022-07-29T16:54:31.896Z,5.53
2022-07-29T16:57:02.250Z,4.38
2022-07-29T16:59:30.379Z,4.57
2022-07-29T17:01:58.147Z,3.80
2022-07-29T17:04:27.768Z,4.50
2022-07-29T17:06:55.539Z,4.70
2022-07-29T17:09:23.862Z,4.55
2022-07-29T17:11:55.262Z,5.53
2022-07-29T17:14:25.349Z,5.10
2022-07-29T17:17:01.177Z,6.70
2022-07-29T17:19:35.643Z,6.13
2022-07-29T17:22:18.774Z,6.00
2022-07-29T17:24:47.844Z,6.22
2022-07-29T17:27:16.022Z,6.38
2022-07-29T17:29:43.564Z,5.38
2022-07-29T17:32:12.076Z,5.80
2022-07-29T17:34:41.536Z,5.40
2022-07-29T17:37:10.191Z,4.65
2022-07-29T17:39:41.692Z,6.15
2022-07-29T17:42:10.639Z,6.30
2022-07-29T17:44:39.150Z,5.85
2022-07-29T17:47:07.902Z,5.82
2022-07-29T17:49:38.044Z,5.35
2022-07-29T17:52:05.834Z,4.53
2022-07-29T17:54:33.623Z,4.43
2022-07-29T17:57:01.379Z,4.72
2022-07-29T17:59:29.123Z,5.05
2022-07-29T18:01:56.658Z,4.93
2022-07-29T18:04:24.157Z,4.95
2022-07-29T18:06:51.888Z,5.10
2022-07-29T18:09:19.373Z,5.30
2022-07-29T18:11:48.286Z,6.15
2022-07-29T18:14:15.814Z,5.50
2022-07-29T18:16:43.339Z,5.72
2022-07-29T18:19:10.756Z,5.63
2022-07-29T18:21:51.224Z,5.10
2022-07-29T18:24:27.736Z,5.18
2022-07-29T18:26:55.223Z,5.22
2022-07-29T18:29:22.772Z,5.40
2022-07-29T18:31:50.392Z,5.20
2022-07-29T18:34:17.879Z,5.40
2022-07-29T18:36:46.089Z,5.47
2022-07-29T18:39:20.975Z,7.80
2022-07-29T18:41:51.927Z,6.05
2022-07-29T18:44:22.089Z,5.55
2022-07-29T18:46:51.519Z,5.07
2022-07-29T18:49:19.450Z,5.45
2022-07-29T18:51:47.259Z,5.40
2022-07-29T18:54:14.742Z,5.60
2022-07-29T18:56:42.214Z,5.45
2022-07-29T18:59:09.761Z,5.78
2022-07-29T19:01:38.226Z,6.00
2022-07-29T19:04:05.882Z,5.85
2022-07-29T19:06:33.323Z,6.03
2022-07-29T19:09:01.067Z,5.40
2022-07-29T19:11:28.528Z,6.30
2022-07-29T19:13:56.195Z,5.88
2022-07-29T19:16:25.734Z,6.60
2022-07-29T19:18:53.851Z,6.82
2022-07-29T19:21:25.127Z,6.65
2022-07-29T19:24:01.791Z,6.13
2022-07-29T19:26:36.912Z,6.35
2022-07-29T19:29:04.936Z,5.90
2022-07-29T19:31:32.515Z,6.45
2022-07-29T19:34:00.139Z,6.47
2022-07-29T19:36:27.608Z,6.53
2022-07-29T19:38:55.022Z,6.90
2022-07-29T19:41:24.713Z,7.13
2022-07-29T19:43:53.191Z,7.03
2022-07-29T19:46:24.491Z,7.15
2022-07-29T19:48:53.233Z,6.40
2022-07-29T19:51:20.932Z,6.63
2022-07-29T19:53:48.752Z,7.35
2022-07-29T19:56:16.222Z,6.85
2022-07-29T19:58:44.990Z,5.80
2022-07-29T20:01:12.794Z,6.53
2022-07-29T20:03:40.422Z,7.43
2022-07-29T20:06:08.749Z,7.88
2022-07-29T20:08:36.330Z,7.80
2022-07-29T20:11:04.814Z,7.00
2022-07-29T20:13:33.901Z,6.05
2022-07-29T20:16:05.595Z,6.80
2022-07-29T20:18:35.353Z,7.18
2022-07-29T20:21:04.773Z,6.40
2022-07-29T20:23:33.255Z,5.78
2022-07-29T20:26:01.310Z,5.90
2022-07-29T20:28:28.733Z,6.72
2022-07-29T20:30:56.297Z,6.30
2022-07-29T20:33:23.839Z,5.90
2022-07-29T20:35:51.169Z,5.80
2022-07-29T20:38:18.622Z,6.15
2022-07-29T20:40:46.361Z,5.45
2022-07-29T20:43:13.858Z,5.10
2022-07-29T20:45:41.275Z,5.10
2022-07-29T20:48:10.875Z,5.63
2022-07-29T20:50:38.244Z,5.28
2022-07-29T20:53:05.817Z,5.22
2022-07-29T20:55:33.536Z,5.90
2022-07-29T20:58:00.936Z,6.07
2022-07-29T21:00:29.456Z,5.85
2022-07-29T21:02:57.078Z,6.00
2022-07-29T21:05:24.512Z,5.78
2022-07-29T21:07:56.516Z,6.28
2022-07-29T21:10:25.992Z,5.70
2022-07-29T21:12:55.770Z,5.32
2022-07-29T21:15:27.917Z,4.97
2022-07-29T21:18:06.291Z,5.40
2022-07-29T21:20:33.810Z,5.53
2022-07-29T21:23:01.226Z,5.75
2022-07-29T21:25:29.000Z,5.75
2022-07-29T21:28:15.054Z,4.57
2022-07-29T21:30:42.777Z,4.90
2022-07-29T21:33:10.429Z,5.30
2022-07-29T21:36:10.178Z,5.15
2022-07-29T21:38:27.216Z,5.13
2022-07-29T21:40:55.240Z,5.60
2022-07-29T21:43:24.064Z,5.25
2022-07-29T21:45:51.675Z,5.07
2022-07-29T21:48:20.585Z,5.03
2022-07-29T21:50:49.315Z,5.03
2022-07-29T21:53:17.661Z,5.22
2022-07-29T21:58:24.041Z,4.30
2022-07-29T22:00:51.592Z,3.92
2022-07-29T22:03:18.976Z,4.40
2022-07-29T22:05:46.749Z,4.72
2022-07-29T22:08:14.209Z,4.82
2022-07-29T22:10:41.898Z,4.30
2022-07-29T22:13:09.315Z,5.15
2022-07-29T22:15:36.885Z,4.70
2022-07-29T22:18:04.377Z,5.22
2022-07-29T22:20:31.717Z,5.82
2022-07-29T22:22:59.191Z,7.63
2022-07-29T22:25:27.777Z,10.63
2022-07-29T22:27:55.162Z,4.30
2022-07-29T22:30:22.541Z,4.45
2022-07-29T22:32:50.060Z,4.13
2022-07-29T22:35:18.091Z,4.60
2022-07-29T22:37:45.506Z,4.35
2022-07-29T22:40:13.058Z,4.63
2022-07-29T22:42:41.104Z,4.20
2022-07-29T22:45:10.143Z,4.15
2022-07-29T22:47:46.196Z,3.80
2022-07-29T22:50:17.453Z,4.93
2022-07-29T22:52:45.861Z,4.63
2022-07-29T22:55:13.725Z,4.40
2022-07-29T22:57:41.266Z,4.07
2022-07-29T23:00:09.418Z,4.10
2022-07-29T23:02:37.645Z,4.03
2022-07-29T23:05:05.464Z,3.60
2022-07-29T23:07:34.223Z,3.95
2022-07-29T23:10:02.351Z,4.20
2022-07-29T23:12:32.122Z,4.00
2022-07-29T23:14:59.582Z,4.20
2022-07-29T23:17:26.920Z,4.22
2022-07-29T23:19:54.272Z,4.55
2022-07-29T23:22:21.542Z,4.40
2022-07-29T23:24:48.891Z,3.88
2022-07-29T23:27:16.234Z,3.55
2022-07-29T23:29:43.636Z,3.42
2022-07-29T23:32:10.983Z,3.63
2022-07-29T23:34:38.598Z,3.85
2022-07-29T23:37:06.340Z,4.00
2022-07-29T23:39:33.675Z,3.78
2022-07-29T23:42:01.045Z,3.55
2022-07-29T23:44:28.449Z,3.25
2022-07-29T23:46:55.815Z,2.95
2022-07-29T23:49:23.301Z,3.50
2022-07-29T23:51:50.748Z,3.33
2022-07-29T23:54:18.125Z,3.20
2022-07-29T23:56:45.588Z,2.80
2022-07-29T23:59:13.768Z,3.55
